Time;durP1;ratioP1;P1;durP2;ratioP2;P2;SDS_P1;SDS_P2;PMS_P1;PMS_P2;Temp;Humidity;BMP_temperature;BMP_pressure;BME280_temperature;BME280_humidity;BME280_pressure;Samples;Min_cycle;Max_cycle;Signal;HPM_P1;HPM_P2
2022/05/10 00:01:38;;;;;;;12.18;9.80;;;11.00;99.90;;;;;;5032460;28;20037;-56
2022/05/10 00:04:06;;;;;;;14.13;8.63;;;10.90;99.90;;;;;;5032889;28;20022;-58
2022/05/10 00:06:40;;;;;;;12.10;9.32;;;11.00;99.90;;;;;;5032485;28;20080;-56
2022/05/10 00:09:06;;;;;;;24.77;9.10;;;10.90;99.90;;;;;;5032826;28;20041;-55
2022/05/10 00:11:33;;;;;;;11.45;8.20;;;10.90;99.90;;;;;;5032591;28;20018;-56
2022/05/10 00:13:58;;;;;;;10.02;8.77;;;10.80;99.90;;;;;;5032791;28;20083;-55
2022/05/10 00:16:24;;;;;;;10.60;8.75;;;10.80;99.90;;;;;;5032489;28;20022;-57
2022/05/10 00:18:50;;;;;;;11.65;9.65;;;10.70;99.90;;;;;;5032434;28;20049;-58
2022/05/10 00:21:21;;;;;;;13.15;9.93;;;10.60;99.90;;;;;;5032364;28;20108;-56
2022/05/10 00:23:47;;;;;;;12.02;9.43;;;10.60;99.90;;;;;;5032464;28;20025;-57
2022/05/10 00:26:12;;;;;;;14.98;9.85;;;10.50;99.90;;;;;;5032569;28;20095;-58
2022/05/10 00:28:38;;;;;;;12.75;11.32;;;10.50;99.90;;;;;;5032329;28;20102;-54
2022/05/10 00:31:05;;;;;;;12.43;10.05;;;10.40;99.90;;;;;;5032287;28;20579;-57
2022/05/10 00:33:31;;;;;;;13.77;10.60;;;10.40;99.90;;;;;;5032262;28;20050;-57
2022/05/10 00:35:58;;;;;;;12.57;9.23;;;10.40;99.90;;;;;;5032261;28;20029;-58
2022/05/10 00:38:32;;;;;;;10.77;8.77;;;10.40;99.90;;;;;;5032216;28;20026;-54
2022/05/10 00:41:14;;;;;;;10.90;9.15;;;10.30;99.90;;;;;;5032160;28;20029;-55
2022/05/10 00:43:45;;;;;;;27.35;8.43;;;10.20;99.90;;;;;;5032080;28;20021;-57
2022/05/10 00:46:28;;;;;;;11.30;9.10;;;10.20;99.90;;;;;;5032132;28;20064;-56
2022/05/10 00:49:30;;;;;;;10.40;8.45;;;10.10;99.90;;;;;;5032047;28;20454;-57
2022/05/10 00:52:05;;;;;;;10.32;9.32;;;10.10;99.90;;;;;;5028221;28;20045;-56
2022/05/10 00:54:56;;;;;;;17.60;9.85;;;10.00;99.90;;;;;;5031911;28;20389;-57
2022/05/10 00:57:32;;;;;;;11.43;10.25;;;9.90;99.90;;;;;;5032007;28;20105;-58
2022/05/10 01:00:18;;;;;;;13.02;11.30;;;9.90;99.90;;;;;;5031967;28;20436;-56
2022/05/10 01:02:47;;;;;;;13.52;9.88;;;9.90;99.90;;;;;;5031734;28;20661;-55
2022/05/10 01:05:25;;;;;;;15.98;9.18;;;9.80;99.90;;;;;;5032004;28;20084;-57
2022/05/10 01:08:14;;;;;;;14.65;10.02;;;9.70;99.90;;;;;;5031802;28;20350;-56
2022/05/10 01:10:52;;;;;;;12.90;9.85;;;9.70;99.90;;;;;;5031581;28;20076;-56
2022/05/10 01:13:47;;;;;;;12.23;9.68;;;9.70;99.90;;;;;;5031386;28;20119;-56
2022/05/10 01:16:14;;;;;;;;;;;9.70;99.90;;;;;;5031339;28;20107;-58
2022/05/10 01:18:41;;;;;;;14.23;9.98;;;9.70;99.90;;;;;;5031310;28;19924;-58
2022/05/10 01:21:18;;;;;;;11.57;10.15;;;9.70;99.90;;;;;;5031565;28;20035;-57
2022/05/10 01:23:55;;;;;;;14.55;9.55;;;9.70;99.90;;;;;;5031389;28;20195;-57
2022/05/10 01:26:41;;;;;;;17.60;9.23;;;9.70;99.90;;;;;;5031722;28;20480;-55
2022/05/10 01:29:13;;;;;;;12.68;9.70;;;9.60;99.90;;;;;;5031515;28;20029;-57
2022/05/10 01:31:45;;;;;;;10.80;8.70;;;9.60;99.90;;;;;;5031352;28;20477;-54
2022/05/10 01:34:17;;;;;;;10.23;9.23;;;9.50;99.90;;;;;;5031629;28;20056;-54
2022/05/10 01:36:59;;;;;;;19.83;9.52;;;9.50;99.90;;;;;;5031472;28;20112;-57
2022/05/10 01:39:27;;;;;;;10.02;8.48;;;9.40;99.90;;;;;;5046677;28;20547;-54
2022/05/10 01:42:00;;;;;;;12.50;9.43;;;9.40;99.90;;;;;;5031186;28;20484;-57
2022/05/10 01:44:36;;;;;;;13.60;10.82;;;9.30;99.90;;;;;;5046598;28;20033;-55
2022/05/10 01:47:29;;;;;;;11.02;9.43;;;9.20;99.90;;;;;;5031189;28;20078;-57
2022/05/10 01:50:13;;;;;;;11.18;9.00;;;9.20;99.90;;;;;;5031442;28;20548;-57
2022/05/10 01:52:39;;;;;;;10.85;9.05;;;9.10;99.90;;;;;;5031180;28;20028;-58
2022/05/10 01:55:10;;;;;;;13.48;8.80;;;9.10;99.90;;;;;;5031354;28;20403;-55
2022/05/10 01:57:38;;;;;;;9.85;8.93;;;9.10;99.90;;;;;;5031305;28;20105;-54
2022/05/10 02:00:10;;;;;;;14.20;10.15;;;9.00;99.90;;;;;;5031328;28;20026;-55
2022/05/10 02:02:41;;;;;;;11.43;10.30;;;8.90;99.90;;;;;;5046191;28;20053;-54
2022/05/10 02:05:12;;;;;;;15.15;9.88;;;8.90;99.90;;;;;;5031282;28;20026;-57
2022/05/10 02:07:40;;;;;;;12.20;10.90;;;8.90;99.90;;;;;;5031106;28;20105;-57
2022/05/10 02:10:24;;;;;;;11.98;9.35;;;8.90;99.90;;;;;;5031346;28;20033;-56
2022/05/10 02:13:04;;;;;;;10.77;9.55;;;8.90;99.90;;;;;;5031043;28;20021;-58
2022/05/10 02:15:43;;;;;;;16.88;10.27;;;8.90;99.90;;;;;;5031032;28;20067;-57
2022/05/10 02:18:21;;;;;;;10.40;9.40;;;8.90;99.90;;;;;;5046257;28;20045;-55
2022/05/10 02:20:54;;;;;;;15.50;10.88;;;8.90;99.90;;;;;;5031062;28;20116;-52
2022/05/10 02:23:30;;;;;;;14.48;9.82;;;8.90;99.90;;;;;;5031069;28;20048;-56
2022/05/10 02:26:12;;;;;;;15.00;9.85;;;8.90;99.90;;;;;;5031875;28;20069;-57
2022/05/10 02:28:45;;;;;;;12.10;10.77;;;8.80;99.90;;;;;;5034563;28;20028;-55
2022/05/10 02:34:33;;;;;;;13.93;10.18;;;8.70;99.90;;;;;;5034153;28;20040;-57
2022/05/10 02:36:59;;;;;;;13.65;10.50;;;8.60;99.90;;;;;;5034561;28;20040;-55
2022/05/10 02:39:25;;;;;;;14.45;11.02;;;8.60;99.90;;;;;;5033254;28;20038;-55
2022/05/10 02:41:52;;;;;;;12.18;10.68;;;8.50;99.90;;;;;;5034466;28;20416;-55
2022/05/10 02:44:18;;;;;;;11.25;9.95;;;8.60;99.90;;;;;;5034303;28;20060;-56
2022/05/10 02:46:44;;;;;;;14.80;11.20;;;8.50;99.90;;;;;;5034266;28;20402;-56
2022/05/10 02:49:09;;;;;;;11.32;9.85;;;8.60;99.90;;;;;;5034611;28;20052;-57
2022/05/10 02:51:35;;;;;;;14.93;10.82;;;8.60;99.90;;;;;;5034194;28;20017;-53
2022/05/10 02:54:01;;;;;;;14.98;11.88;;;8.50;99.90;;;;;;5034357;28;20052;-55
2022/05/10 02:56:29;;;;;;;13.32;11.73;;;8.50;99.90;;;;;;5034201;28;20075;-58
2022/05/10 02:59:11;;;;;;;14.52;11.70;;;8.50;99.90;;;;;;5034017;28;20087;-58
2022/05/10 03:02:05;;;;;;;17.65;11.32;;;8.40;99.90;;;;;;5034023;28;20083;-55
2022/05/10 03:04:41;;;;;;;13.68;12.27;;;8.40;99.90;;;;;;5033878;28;20026;-55
2022/05/10 03:07:09;;;;;;;17.73;11.45;;;8.40;99.90;;;;;;5034010;28;20026;-58
2022/05/10 03:09:35;;;;;;;16.35;12.75;;;8.40;99.90;;;;;;5033783;28;20026;-55
2022/05/10 03:12:05;;;;;;;13.50;12.13;;;8.40;99.90;;;;;;5033986;28;20033;-54
2022/05/10 03:14:31;;;;;;;13.40;12.10;;;8.40;99.90;;;;;;5033717;28;20053;-55
2022/05/10 03:16:57;;;;;;;14.43;12.25;;;8.40;99.90;;;;;;5033630;28;20049;-55
2022/05/10 03:19:23;;;;;;;15.55;11.13;;;8.40;99.90;;;;;;5033851;28;20022;-50
2022/05/10 03:21:48;;;;;;;16.25;11.50;;;8.40;99.90;;;;;;5033505;28;20061;-54
2022/05/10 03:24:14;;;;;;;16.05;10.57;;;8.30;99.90;;;;;;5033596;28;20030;-56
2022/05/10 03:26:48;;;;;;;11.80;10.70;;;8.30;99.90;;;;;;5033474;28;20022;-55
2022/05/10 03:29:15;;;;;;;16.92;11.48;;;8.30;99.90;;;;;;5033633;28;20022;-55
2022/05/10 03:31:41;;;;;;;19.90;10.82;;;8.30;99.90;;;;;;5033335;28;20053;-56
2022/05/10 03:36:51;;;;;;;11.88;10.35;;;8.20;99.90;;;;;;5033095;28;20055;-55
2022/05/10 03:39:17;;;;;;;12.52;10.73;;;8.10;99.90;;;;;;5033603;28;20025;-56
2022/05/10 03:41:42;;;;;;;14.20;12.25;;;8.00;99.90;;;;;;5033040;28;20109;-55
2022/05/10 03:44:08;;;;;;;15.25;11.07;;;8.00;99.90;;;;;;5033294;28;20459;-52
2022/05/10 03:46:34;;;;;;;15.38;10.90;;;8.00;99.90;;;;;;5033276;28;20113;-53
2022/05/10 03:49:00;;;;;;;14.02;11.30;;;8.10;99.90;;;;;;5033163;28;20021;-54
2022/05/10 03:51:26;;;;;;;13.32;11.65;;;8.10;99.90;;;;;;5048449;28;20064;-58
2022/05/10 03:53:52;;;;;;;14.63;11.55;;;8.00;99.90;;;;;;5033456;28;20043;-54
2022/05/10 03:56:17;;;;;;;13.25;11.18;;;8.10;99.90;;;;;;5033117;28;20026;-56
2022/05/10 03:58:43;;;;;;;12.57;11.27;;;8.10;99.90;;;;;;5032850;28;20392;-57
2022/05/10 04:01:09;;;;;;;13.13;11.38;;;8.10;99.90;;;;;;5032966;28;20427;-56
2022/05/10 04:03:35;;;;;;;14.55;11.90;;;8.10;99.90;;;;;;5032627;28;20368;-57
2022/05/10 04:06:01;;;;;;;13.32;12.02;;;8.10;99.90;;;;;;5032978;28;20523;-54
2022/05/10 04:08:27;;;;;;;14.75;11.68;;;8.20;99.90;;;;;;5032861;28;20029;-57
2022/05/10 04:10:54;;;;;;;13.25;11.85;;;8.20;99.90;;;;;;5032671;28;20067;-54
2022/05/10 04:13:20;;;;;;;19.92;12.18;;;8.20;99.90;;;;;;5032816;28;20350;-57
2022/05/10 04:15:45;;;;;;;15.52;12.40;;;8.30;99.90;;;;;;5032552;28;20563;-55
2022/05/10 04:18:11;;;;;;;14.70;11.70;;;8.30;99.90;;;;;;5032557;28;20172;-54
2022/05/10 04:20:37;;;;;;;21.85;11.15;;;8.30;99.90;;;;;;5032487;28;20027;-57
2022/05/10 04:23:03;;;;;;;14.30;11.43;;;8.30;99.90;;;;;;5032529;28;20029;-54
2022/05/10 04:25:29;;;;;;;12.60;11.32;;;8.40;99.90;;;;;;5032339;28;20022;-56
2022/05/10 04:27:55;;;;;;;19.52;10.57;;;8.40;99.90;;;;;;5032362;28;20358;-56
2022/05/10 04:30:21;;;;;;;12.32;11.07;;;8.60;99.90;;;;;;5032437;28;20032;-54
2022/05/10 04:32:47;;;;;;;15.75;11.93;;;8.60;99.90;;;;;;5032254;28;20028;-52
2022/05/10 04:35:13;;;;;;;16.58;12.57;;;8.70;99.90;;;;;;5032256;28;20021;-55
2022/05/10 04:37:39;;;;;;;14.15;12.60;;;8.80;99.90;;;;;;5032154;28;20042;-57
2022/05/10 04:42:53;;;;;;;20.67;14.82;;;9.00;99.90;;;;;;5032017;28;20075;-57
2022/05/10 04:45:19;;;;;;;18.15;15.27;;;9.00;99.90;;;;;;5032176;28;20097;-56
2022/05/10 04:47:45;;;;;;;19.20;14.75;;;9.10;99.90;;;;;;5032062;28;20040;-56
2022/05/10 04:50:11;;;;;;;20.40;14.30;;;9.20;99.90;;;;;;5031406;28;20076;-54
2022/05/10 04:52:39;;;;;;;18.38;14.43;;;9.50;99.90;;;;;;5031954;28;20040;-54
2022/05/10 04:55:08;;;;;;;21.58;15.07;;;9.60;99.90;;;;;;5031947;28;20432;-52
2022/05/10 04:57:35;;;;;;;18.80;14.20;;;9.80;99.90;;;;;;5047042;28;20061;-57
2022/05/10 05:00:00;;;;;;;23.10;16.20;;;9.80;99.90;;;;;;5047365;28;20108;-54
2022/05/10 05:02:26;;;;;;;20.50;14.55;;;10.00;99.90;;;;;;5031617;28;20117;-57
2022/05/10 05:04:52;;;;;;;16.08;14.13;;;10.00;99.90;;;;;;5031905;28;20026;-58
2022/05/10 05:07:17;;;;;;;18.60;14.52;;;10.20;99.90;;;;;;5047135;28;20018;-56
2022/05/10 05:09:43;;;;;;;18.98;11.90;;;10.40;99.90;;;;;;5031152;28;20472;-56
2022/05/10 05:12:10;;;;;;;14.25;12.30;;;10.40;99.90;;;;;;5031527;28;20338;-55
2022/05/10 05:14:35;;;;;;;16.02;12.45;;;10.40;99.90;;;;;;5030686;28;20022;-56
2022/05/10 05:17:01;;;;;;;19.10;14.18;;;10.30;99.90;;;;;;5030040;28;20045;-57
2022/05/10 05:19:27;;;;;;;16.75;15.15;;;10.30;99.90;;;;;;5030033;28;20361;-54
2022/05/10 05:21:52;;;;;;;20.20;15.02;;;10.40;99.90;;;;;;5030942;28;20021;-57
2022/05/10 05:24:18;;;;;;;16.42;14.77;;;10.50;99.90;;;;;;5030656;28;20104;-56
2022/05/10 05:26:45;;;;;;;14.80;13.30;;;10.70;99.90;;;;;;5031092;28;20099;-53
2022/05/10 05:29:10;;;;;;;18.77;15.10;;;10.80;99.90;;;;;;5031440;28;20116;-57
2022/05/10 05:31:36;;;;;;;16.20;14.00;;;10.90;99.90;;;;;;5031327;28;20125;-55
2022/05/10 05:34:02;;;;;;;16.60;14.98;;;11.00;99.90;;;;;;5030822;28;20061;-54
2022/05/10 05:36:28;;;;;;;16.17;14.48;;;11.00;99.90;;;;;;5030626;28;20070;-56
2022/05/10 05:38:54;;;;;;;18.45;15.18;;;11.20;99.90;;;;;;5031509;28;20365;-56
2022/05/10 05:41:20;;;;;;;15.45;13.93;;;11.30;99.90;;;;;;5030961;28;20025;-53
2022/05/10 05:43:46;;;;;;;16.05;14.35;;;11.40;99.90;;;;;;5031322;28;20026;-54
2022/05/10 05:46:11;;;;;;;15.63;13.93;;;11.50;99.90;;;;;;5030783;28;20020;-58
2022/05/10 05:48:37;;;;;;;17.65;14.55;;;11.70;99.90;;;;;;5031122;28;20464;-57
2022/05/10 05:51:04;;;;;;;21.15;15.02;;;11.90;99.90;;;;;;5028991;28;20477;-56
2022/05/10 05:53:29;;;;;;;15.52;13.60;;;12.00;99.90;;;;;;5044829;28;20033;-57
2022/05/10 05:56:03;;;;;;;29.50;15.13;;;12.10;99.90;;;;;;5029525;28;20579;-54
2022/05/10 05:58:30;;;;;;;19.13;15.02;;;12.20;99.90;;;;;;5029844;28;20061;-55
2022/05/10 06:00:55;;;;;;;20.55;16.13;;;12.30;99.90;;;;;;5032749;28;20013;-51
2022/05/10 06:03:21;;;;;;;18.73;16.50;;;12.40;99.90;;;;;;5034804;28;20048;-51
2022/05/10 06:05:49;;;;;;;18.05;16.30;;;12.40;99.90;;;;;;5033930;28;20026;-48
2022/05/10 06:08:16;;;;;;;19.98;16.58;;;12.50;99.90;;;;;;5034175;28;20017;-51
2022/05/10 06:10:42;;;;;;;16.48;14.60;;;12.60;99.90;;;;;;5033717;28;20022;-54
2022/05/10 06:13:09;;;;;;;22.75;16.35;;;12.70;99.90;;;;;;5034669;28;20028;-52
2022/05/10 06:15:37;;;;;;;18.67;16.27;;;12.80;99.90;;;;;;5034649;28;20469;-57
2022/05/10 06:18:04;;;;;;;19.02;15.57;;;13.00;99.90;;;;;;5034044;28;20041;-54
2022/05/10 06:20:30;;;;;;;18.48;15.57;;;13.10;99.90;;;;;;5033640;28;20076;-54
2022/05/10 06:22:56;;;;;;;16.27;14.38;;;13.20;99.90;;;;;;5034208;28;20027;-52
2022/05/10 06:25:23;;;;;;;16.98;14.82;;;13.40;99.90;;;;;;5034280;28;20361;-56
2022/05/10 06:27:51;;;;;;;17.48;14.98;;;13.50;99.90;;;;;;5033525;28;20022;-54
2022/05/10 06:30:19;;;;;;;16.58;14.88;;;13.50;99.90;;;;;;5034693;28;20385;-55
2022/05/10 06:32:46;;;;;;;15.52;13.93;;;13.70;99.90;;;;;;5034499;28;20067;-53
2022/05/10 06:35:12;;;;;;;15.27;12.60;;;13.80;99.90;;;;;;5034688;28;20095;-53
2022/05/10 06:40:22;;;;;;;15.70;12.02;;;14.10;99.90;;;;;;5034184;28;20072;-54
2022/05/10 06:42:48;;;;;;;12.32;10.88;;;14.20;99.90;;;;;;5033358;28;20061;-56
2022/05/10 06:45:18;;;;;;;14.50;12.68;;;14.30;99.90;;;;;;5034463;28;20029;-48
2022/05/10 06:47:47;;;;;;;16.25;12.00;;;14.40;99.90;;;;;;5033877;28;20411;-53
2022/05/10 06:50:17;;;;;;;13.43;10.98;;;14.60;99.90;;;;;;5034147;28;20025;-53
2022/05/10 06:52:42;;;;;;;14.43;11.10;;;14.70;99.90;;;;;;5033945;28;20101;-54
2022/05/10 06:55:09;;;;;;;12.27;10.98;;;14.80;99.90;;;;;;5033871;28;20129;-54
2022/05/10 06:57:35;;;;;;;12.02;10.73;;;15.00;99.90;;;;;;5034034;28;20037;-51
2022/05/10 07:00:01;;;;;;;17.15;12.48;;;15.10;99.90;;;;;;5034125;28;20041;-47
2022/05/10 07:02:26;;;;;;;13.05;9.90;;;15.20;99.90;;;;;;5033883;28;20022;-53
2022/05/10 07:04:53;;;;;;;11.57;10.38;;;15.40;99.90;;;;;;5033985;28;20141;-55
2022/05/10 07:07:19;;;;;;;15.45;10.38;;;15.50;99.90;;;;;;5034015;28;20033;-53
2022/05/10 07:09:45;;;;;;;17.98;11.80;;;15.70;99.90;;;;;;5033762;28;20022;-51
2022/05/10 07:12:11;;;;;;;17.42;10.75;;;15.50;99.90;;;;;;5032880;28;20061;-50
2022/05/10 07:14:37;;;;;;;15.32;11.73;;;15.60;99.90;;;;;;5033537;28;20063;-51
2022/05/10 07:17:03;;;;;;;12.35;9.98;;;15.60;99.90;;;;;;5033514;28;20493;-54
2022/05/10 07:19:29;;;;;;;15.80;8.70;;;15.70;99.90;;;;;;5033306;28;20030;-54
2022/05/10 07:21:54;;;;;;;9.07;8.18;;;15.90;99.90;;;;;;5033502;28;20388;-52
2022/05/10 07:24:20;;;;;;;14.50;9.23;;;16.20;99.90;;;;;;5033781;28;20450;-55
2022/05/10 07:26:47;;;;;;;9.73;8.32;;;16.30;99.90;;;;;;5033483;28;20173;-55
2022/05/10 07:29:14;;;;;;;10.82;9.32;;;16.40;99.90;;;;;;5033565;28;20087;-55
2022/05/10 07:31:40;;;;;;;17.35;7.93;;;16.60;99.90;;;;;;5033389;28;20025;-50
2022/05/10 07:34:07;;;;;;;12.15;9.23;;;16.80;99.90;;;;;;5033538;28;20091;-51
2022/05/10 07:36:36;;;;;;;12.57;8.57;;;16.70;99.90;;;;;;5033188;28;20029;-52
2022/05/10 07:39:06;;;;;;;13.77;9.02;;;16.90;99.90;;;;;;5033534;28;20033;-53
2022/05/10 07:41:33;;;;;;;11.63;8.32;;;16.90;99.90;;;;;;5033169;28;20048;-53
2022/05/10 07:43:59;;;;;;;15.95;10.75;;;16.90;99.90;;;;;;5033208;28;20399;-56
2022/05/10 07:46:25;;;;;;;11.20;8.52;;;16.90;99.90;;;;;;5033211;28;20026;-55
2022/05/10 07:48:51;;;;;;;11.90;8.75;;;16.80;99.90;;;;;;5048394;28;20449;-54
2022/05/10 07:51:18;;;;;;;11.23;8.80;;;16.90;99.90;;;;;;5048534;28;20029;-53
2022/05/10 07:53:45;;;;;;;17.65;8.73;;;17.10;99.90;;;;;;5033205;28;20106;-53
2022/05/10 07:56:10;;;;;;;11.45;7.80;;;17.30;99.90;;;;;;5033102;28;20029;-53
2022/05/10 07:58:36;;;;;;;8.90;7.03;;;17.50;99.90;;;;;;5032889;28;20036;-53
2022/05/10 08:01:05;;;;;;;10.45;6.05;;;17.80;99.90;;;;;;5032927;28;20083;-52
2022/05/10 08:03:32;;;;;;;8.07;6.05;;;18.00;99.90;;;;;;5032856;28;20412;-56
2022/05/10 08:06:01;;;;;;;8.93;7.32;;;18.20;99.90;;;;;;5032676;28;20080;-55
2022/05/10 08:08:29;;;;;;;10.35;7.40;;;18.10;99.90;;;;;;5032824;28;20025;-54
2022/05/10 08:10:56;;;;;;;15.02;7.20;;;18.10;99.90;;;;;;5032746;28;20452;-54
2022/05/10 08:13:25;;;;;;;10.15;6.85;;;18.10;99.90;;;;;;5032738;28;20037;-53
2022/05/10 08:15:51;;;;;;;7.78;6.93;;;18.30;99.90;;;;;;5032476;28;20112;-55
2022/05/10 08:18:19;;;;;;;8.20;7.40;;;18.60;99.90;;;;;;5034657;28;20060;-55
2022/05/10 08:20:46;;;;;;;11.55;6.28;;;18.60;99.90;;;;;;5052485;28;20025;-56
2022/05/10 08:23:21;;;;;;;7.95;6.95;;;18.80;99.90;;;;;;5052329;28;20508;-57
2022/05/10 08:25:54;;;;;;;7.93;6.93;;;18.80;99.90;;;;;;5051786;28;20037;-56
2022/05/10 08:28:22;;;;;;;9.18;7.65;;;18.80;99.90;;;;;;5051466;28;20033;-57
2022/05/10 08:30:48;;;;;;;12.52;6.72;;;19.10;99.90;;;;;;5049602;28;20033;-53
2022/05/10 08:33:23;;;;;;;7.18;5.72;;;19.30;99.90;;;;;;5051020;28;20053;-56
2022/05/10 08:35:49;;;;;;;11.73;9.27;;;19.40;99.90;;;;;;5051019;28;20071;-55
2022/05/10 08:38:15;;;;;;;8.18;6.95;;;19.50;99.30;;;;;;5050907;28;20078;-57
2022/05/10 08:40:55;;;;;;;13.07;7.72;;;19.70;97.40;;;;;;5051424;28;20025;-54
2022/05/10 08:43:26;;;;;;;13.35;7.25;;;19.60;99.20;;;;;;5051991;28;20112;-56
2022/05/10 08:45:53;;;;;;;12.07;6.50;;;19.70;99.70;;;;;;5051636;28;20036;-57
2022/05/10 08:48:19;;;;;;;7.65;5.90;;;19.90;99.60;;;;;;5051836;28;20021;-56
2022/05/10 08:50:48;;;;;;;7.03;6.03;;;20.00;99.00;;;;;;5051583;28;20362;-55
2022/05/10 08:53:16;;;;;;;11.93;6.32;;;20.20;99.50;;;;;;5051797;28;20040;-53
2022/05/10 08:55:52;;;;;;;9.10;6.22;;;20.20;99.00;;;;;;5051541;28;20060;-54
2022/05/10 08:58:23;;;;;;;10.38;6.60;;;20.40;99.20;;;;;;5051660;28;20028;-54
2022/05/10 09:00:53;;;;;;;6.78;6.15;;;20.50;97.90;;;;;;5051467;28;20032;-56
2022/05/10 09:03:35;;;;;;;5.68;5.10;;;20.60;98.80;;;;;;5051519;28;20711;-56
2022/05/10 09:06:13;;;;;;;5.18;4.25;;;20.70;97.80;;;;;;5051471;28;20401;-57
2022/05/10 09:08:51;;;;;;;9.52;5.10;;;20.70;96.10;;;;;;5050295;28;20034;-56
2022/05/10 09:11:18;;;;;;;10.15;6.10;;;20.80;97.10;;;;;;5051506;28;20029;-56
2022/05/10 09:13:45;;;;;;;8.63;5.68;;;21.20;96.10;;;;;;5051349;28;20139;-56
2022/05/10 09:16:13;;;;;;;6.05;5.45;;;21.30;96.70;;;;;;5051510;28;20060;-56
2022/05/10 09:18:52;;;;;;;13.20;5.40;;;21.20;95.20;;;;;;5051341;28;20056;-57
2022/05/10 09:21:32;;;;;;;10.95;6.07;;;21.50;94.80;;;;;;5051365;28;20025;-54
2022/05/10 09:24:22;;;;;;;4.65;4.18;;;21.60;93.40;;;;;;5051442;28;20102;-56
2022/05/10 09:26:52;;;;;;;13.70;5.15;;;21.40;92.30;;;;;;5051352;28;20021;-56
2022/05/10 09:29:39;;;;;;;15.63;5.70;;;21.10;95.50;;;;;;5049970;28;20082;-57
2022/05/10 09:35:11;;;;;;;9.40;5.30;;;21.50;94.10;;;;;;5051000;28;20547;-56
2022/05/10 09:37:43;;;;;;;6.50;5.50;;;21.80;95.30;;;;;;5051327;28;20040;-56
2022/05/10 09:40:21;;;;;;;8.57;5.18;;;22.10;94.80;;;;;;5051336;28;20091;-51
2022/05/10 09:42:49;;;;;;;10.80;5.55;;;22.30;95.10;;;;;;5051071;28;20044;-55
2022/05/10 09:45:22;;;;;;;8.43;5.30;;;22.30;93.40;;;;;;5051042;28;20101;-56
2022/05/10 09:48:08;;;;;;;10.25;4.82;;;22.60;93.10;;;;;;5051150;28;20079;-54
2022/05/10 09:50:35;;;;;;;7.03;5.18;;;22.60;90.20;;;;;;5051188;28;20556;-56
2022/05/10 09:53:25;;;;;;;8.32;5.55;;;22.70;90.60;;;;;;5051048;28;20032;-53
2022/05/10 09:55:53;;;;;;;11.75;5.88;;;23.00;91.10;;;;;;5051017;28;20093;-57
2022/05/10 09:58:23;;;;;;;10.13;5.35;;;22.90;89.40;;;;;;5049619;28;20111;-54
2022/05/10 10:00:53;;;;;;;8.65;5.82;;;23.20;91.00;;;;;;5050859;28;20534;-56
2022/05/10 10:03:27;;;;;;;7.63;5.60;;;23.10;91.20;;;;;;5050636;28;20040;-56
2022/05/10 10:05:56;;;;;;;11.30;5.72;;;23.10;88.30;;;;;;5051080;28;20025;-57
2022/05/10 10:08:42;;;;;;;8.18;4.90;;;23.00;86.10;;;;;;5050875;28;20029;-55
2022/05/10 10:11:13;;;;;;;11.75;4.55;;;23.00;89.50;;;;;;5044249;28;20029;-54
2022/05/10 10:13:41;;;;;;;6.57;4.28;;;23.30;86.10;;;;;;5027208;28;20029;-56
2022/05/10 10:16:24;;;;;;;8.93;4.78;;;23.60;84.20;;;;;;5020244;28;20036;-56
2022/05/10 10:18:53;;;;;;;8.30;5.03;;;23.70;82.50;;;;;;5020361;28;20046;-55
2022/05/10 10:21:44;;;;;;;6.20;5.10;;;23.90;81.10;;;;;;5019553;28;20038;-52
2022/05/10 10:24:28;;;;;;;9.55;5.18;;;23.90;82.90;;;;;;5019541;28;20034;-56
2022/05/10 10:27:02;;;;;;;7.78;5.00;;;23.70;80.30;;;;;;5002774;28;20030;-57
2022/05/10 10:29:47;;;;;;;7.97;5.68;;;23.10;78.20;;;;;;5020128;28;20695;-51
2022/05/10 10:32:25;;;;;;;5.97;4.85;;;23.60;83.00;;;;;;5019773;28;20030;-53
2022/05/10 10:35:09;;;;;;;5.68;4.53;;;24.10;82.80;;;;;;5019844;28;20044;-56
2022/05/10 10:37:40;;;;;;;6.10;4.43;;;24.20;76.10;;;;;;5019823;28;20585;-57
2022/05/10 10:40:40;;;;;;;10.10;4.35;;;24.40;76.70;;;;;;5023515;28;20044;-55
2022/05/10 10:43:27;;;;;;;13.68;4.72;;;24.30;74.00;;;;;;5018990;28;20484;-57
2022/05/10 10:46:09;;;;;;;9.00;4.95;;;24.50;71.20;;;;;;5030672;28;20033;-55
2022/05/10 10:48:42;;;;;;;6.75;3.85;;;24.50;74.60;;;;;;5033689;28;20032;-56
2022/05/10 10:51:09;;;;;;;4.80;4.03;;;24.60;69.20;;;;;;5034333;28;20496;-56
2022/05/10 10:53:35;;;;;;;5.07;4.43;;;24.70;73.80;;;;;;5034111;28;20382;-56
2022/05/10 10:56:42;;;;;;;6.10;4.43;;;24.90;75.50;;;;;;5034223;28;20644;-56
2022/05/10 10:59:25;;;;;;;7.90;3.95;;;25.40;71.40;;;;;;5034068;28;20060;-56
2022/05/10 11:02:28;;;;;;;4.32;3.40;;;25.40;65.30;;;;;;5034229;28;20033;-55
2022/05/10 11:05:39;;;;;;;6.93;3.10;;;25.40;67.90;;;;;;5032584;28;20397;-52
2022/05/10 11:08:22;;;;;;;6.72;3.33;;;25.60;66.70;;;;;;5034092;28;20033;-55
2022/05/10 11:10:51;;;;;;;;;;;25.40;65.90;;;;;;5034396;28;20036;-55
2022/05/10 11:13:28;;;;;;;4.60;3.50;;;25.40;64.50;;;;;;5033823;28;19912;-57
2022/05/10 11:16:27;;;;;;;7.43;3.38;;;25.40;59.30;;;;;;5034052;28;20057;-58
2022/05/10 11:19:02;;;;;;;8.98;3.17;;;25.30;59.10;;;;;;5032218;28;20052;-54
2022/05/10 11:21:49;;;;;;;7.43;3.08;;;25.50;58.00;;;;;;5032273;28;20034;-58
2022/05/10 11:24:42;;;;;;;6.03;2.92;;;25.60;60.00;;;;;;5033546;28;20037;-57
2022/05/10 11:27:56;;;;;;;9.73;4.70;;;25.90;62.50;;;;;;5033567;28;20025;-57
2022/05/10 11:30:30;;;;;;;5.50;3.72;;;26.20;61.20;;;;;;5011086;28;20029;-56
2022/05/10 11:33:15;;;;;;;5.38;3.20;;;26.30;59.70;;;;;;5011199;28;20113;-52
2022/05/10 11:36:02;;;;;;;7.28;3.00;;;26.20;55.90;;;;;;5027037;28;20037;-54
2022/05/10 11:38:48;;;;;;;4.80;3.20;;;26.40;57.60;;;;;;5033300;28;20049;-57
2022/05/10 11:41:33;;;;;;;5.72;3.20;;;26.80;58.40;;;;;;5032976;28;20029;-56
2022/05/10 11:44:08;;;;;;;9.10;3.03;;;26.60;54.10;;;;;;5033182;28;20025;-56
2022/05/10 11:47:02;;;;;;;3.40;3.10;;;26.50;54.70;;;;;;5033216;28;20022;-57
2022/05/10 11:49:30;;;;;;;6.35;3.00;;;27.10;54.20;;;;;;5033224;28;20108;-55
2022/05/10 11:51:56;;;;;;;9.18;3.22;;;27.30;52.70;;;;;;5033306;28;20034;-56
2022/05/10 11:54:28;;;;;;;5.82;2.45;;;27.50;48.50;;;;;;5033149;28;20033;-56
2022/05/10 11:56:55;;;;;;;5.22;3.00;;;27.90;48.60;;;;;;5033105;28;20025;-56
2022/05/10 11:59:26;;;;;;;12.63;3.05;;;28.80;51.70;;;;;;5032738;28;20087;-56
2022/05/10 12:01:54;;;;;;;12.57;3.13;;;29.70;48.00;;;;;;5033059;28;20053;-57
2022/05/10 12:04:28;;;;;;;4.22;2.50;;;30.00;48.90;;;;;;5032820;28;20425;-57
2022/05/10 12:06:55;;;;;;;9.48;2.90;;;30.70;44.70;;;;;;5032438;28;20032;-54
2022/05/10 12:09:51;;;;;;;3.00;2.38;;;30.80;44.10;;;;;;5032875;28;20021;-57
2022/05/10 12:12:40;;;;;;;4.10;2.15;;;30.60;43.60;;;;;;5027002;28;20033;-57
2022/05/10 12:21:26;;;;;;;3.08;2.45;;;31.10;38.90;;;;;;5021898;28;20124;-58
2022/05/10 12:24:12;;;;;;;3.78;2.60;;;31.80;43.10;;;;;;5021640;28;20594;-57
2022/05/10 12:26:48;;;;;;;9.52;2.72;;;31.20;40.10;;;;;;5021058;28;20550;-57
2022/05/10 12:29:30;;;;;;;6.88;3.25;;;31.30;39.90;;;;;;5021921;28;20055;-58
2022/05/10 12:32:05;;;;;;;6.15;1.85;;;31.10;38.20;;;;;;5021769;28;20117;-55
2022/05/10 12:34:47;;;;;;;3.40;2.05;;;31.30;41.50;;;;;;5021363;28;20057;-56
2022/05/10 12:37:31;;;;;;;5.13;2.03;;;32.00;40.00;;;;;;5021949;28;20095;-56
2022/05/10 12:40:10;;;;;;;10.40;2.88;;;32.60;40.20;;;;;;5021700;28;20045;-54
2022/05/10 12:42:50;;;;;;;3.58;2.38;;;32.10;40.60;;;;;;5020473;28;20160;-57
2022/05/10 12:45:53;;;;;;;3.22;2.00;;;33.40;37.60;;;;;;5021421;28;20021;-55
2022/05/10 12:48:33;;;;;;;3.58;2.00;;;34.20;38.40;;;;;;5019848;28;20033;-56
2022/05/10 12:50:59;;;;;;;4.15;1.95;;;34.50;34.40;;;;;;5020070;28;20042;-55
2022/05/10 12:53:47;;;;;;;4.90;2.28;;;33.30;36.90;;;;;;5020801;28;20542;-56
2022/05/10 12:56:18;;;;;;;4.90;1.75;;;33.00;37.50;;;;;;5020066;28;20083;-57
2022/05/10 12:58:52;;;;;;;3.65;2.28;;;32.90;35.80;;;;;;5019634;28;20053;-56
2022/05/10 13:01:19;;;;;;;3.25;2.03;;;33.00;34.10;;;;;;5021504;28;20403;-53
2022/05/10 13:03:53;;;;;;;4.68;1.90;;;33.50;34.10;;;;;;5020861;28;20394;-56
2022/05/10 13:06:37;;;;;;;9.02;2.40;;;33.40;34.10;;;;;;5021447;28;20078;-56
2022/05/10 13:09:24;;;;;;;2.55;1.38;;;33.40;34.50;;;;;;5020238;28;20131;-56
2022/05/10 13:11:59;;;;;;;3.95;2.25;;;33.90;35.00;;;;;;5020786;28;20112;-56
2022/05/10 13:14:28;;;;;;;4.38;2.63;;;33.80;34.20;;;;;;5020188;28;20520;-57
2022/05/10 13:16:54;;;;;;;5.35;1.88;;;33.70;36.10;;;;;;5019942;28;20122;-58
2022/05/10 13:19:24;;;;;;;2.30;1.70;;;34.00;36.50;;;;;;5020875;28;20154;-55
2022/05/10 13:21:50;;;;;;;8.40;2.50;;;33.90;36.10;;;;;;5020840;28;20072;-57
2022/05/10 13:24:18;;;;;;;4.28;2.40;;;33.80;35.20;;;;;;5020276;28;20025;-57
2022/05/10 13:27:27;;;;;;;6.18;1.58;;;34.10;36.30;;;;;;5020725;28;20030;-56